Time;durP1;ratioP1;P1;durP2;ratioP2;P2;SDS_P1;SDS_P2;PMS_P1;PMS_P2;Temp;Humidity;BMP_temperature;BMP_pressure;BME280_temperature;BME280_humidity;BME280_pressure;Samples;Min_cycle;Max_cycle;Signal;HPM_P1;HPM_P2
2023/07/02 00:01:33;;;;;;;14.45;5.82;;;;;;;17.12;100.00;100399.22;6168887;23;20051;-78
2023/07/02 00:04:02;;;;;;;22.33;6.55;;;;;;;17.26;100.00;100411.44;6194575;23;20004;-78
2023/07/02 00:06:27;;;;;;;19.63;5.65;;;;;;;17.14;100.00;100401.81;6245737;23;20428;-77
2023/07/02 00:08:52;;;;;;;16.58;5.78;;;;;;;17.12;100.00;100396.44;6219198;23;20043;-77
2023/07/02 00:11:18;;;;;;;18.25;5.82;;;;;;;17.06;100.00;100397.16;6169104;23;20036;-77
2023/07/02 00:13:43;;;;;;;20.08;6.45;;;;;;;17.05;100.00;100396.28;6218336;23;20019;-77
2023/07/02 00:16:09;;;;;;;18.30;6.20;;;;;;;16.96;100.00;100394.56;6218701;23;20115;-77
2023/07/02 00:18:34;;;;;;;22.17;7.07;;;;;;;16.94;100.00;100395.75;6219528;23;20436;-77
2023/07/02 00:21:03;;;;;;;16.60;6.65;;;;;;;17.00;100.00;100384.84;6193839;23;20016;-77
2023/07/02 00:23:30;;;;;;;20.55;6.60;;;;;;;16.94;100.00;100382.81;6193302;23;20024;-77
2023/07/02 00:25:56;;;;;;;19.88;6.53;;;;;;;16.95;100.00;100380.91;6218388;23;20099;-77
2023/07/02 00:28:22;;;;;;;18.42;6.47;;;;;;;16.90;100.00;100385.06;6193580;23;20012;-78
2023/07/02 00:30:47;;;;;;;22.45;7.15;;;;;;;16.83;100.00;100374.84;6194152;23;20294;-77
2023/07/02 00:33:13;;;;;;;17.48;6.03;;;;;;;16.88;100.00;100375.22;6218946;23;20674;-77
2023/07/02 00:35:38;;;;;;;21.42;7.13;;;;;;;16.91;100.00;100374.88;6218716;23;20016;-77
2023/07/02 00:38:04;;;;;;;28.17;8.07;;;;;;;16.86;100.00;100383.69;6194344;23;20035;-77
2023/07/02 00:40:29;;;;;;;24.50;7.53;;;;;;;16.91;100.00;100388.69;6220606;23;20038;-77
2023/07/02 00:42:56;;;;;;;20.63;7.55;;;;;;;16.81;100.00;100376.94;6221279;23;20008;-77
2023/07/02 00:45:22;;;;;;;23.40;9.65;;;;;;;16.82;100.00;100381.41;6196016;23;20083;-77
2023/07/02 00:47:47;;;;;;;21.45;8.20;;;;;;;16.85;100.00;100384.72;6195455;23;20036;-77
2023/07/02 00:50:13;;;;;;;27.48;8.48;;;;;;;16.82;100.00;100375.88;6220482;23;20487;-77
2023/07/02 00:52:39;;;;;;;24.77;7.78;;;;;;;16.75;100.00;100375.69;6247135;23;20587;-77
2023/07/02 00:55:05;;;;;;;23.65;8.32;;;;;;;16.72;100.00;100368.63;6247033;23;20012;-77
2023/07/02 00:57:30;;;;;;;24.33;8.10;;;;;;;16.71;100.00;100361.38;6220455;23;20016;-77
2023/07/02 01:00:00;;;;;;;26.17;8.38;;;;;;;16.68;100.00;100369.16;6246938;23;20077;-77
2023/07/02 01:02:25;;;;;;;26.55;8.25;;;;;;;16.73;100.00;100372.25;6220653;23;20054;-72
2023/07/02 01:04:57;;;;;;;26.48;8.80;;;;;;;16.72;100.00;100376.94;6220421;23;20008;-72
2023/07/02 01:07:23;;;;;;;27.25;9.60;;;;;;;16.77;100.00;100389.34;6195130;23;20373;-72
2023/07/02 01:09:48;;;;;;;23.05;8.48;;;;;;;16.81;100.00;100396.28;6220425;23;20008;-73
2023/07/02 01:12:17;;;;;;;32.03;8.88;;;;;;;16.72;100.00;100399.06;6220287;23;20008;-72
2023/07/02 01:14:47;;;;;;;30.75;9.40;;;;;;;16.70;100.00;100414.06;6246852;23;20301;-72
2023/07/02 01:17:18;;;;;;;27.73;10.40;;;;;;;16.66;100.00;100398.84;6219925;23;20095;-73
2023/07/02 01:19:53;;;;;;;24.30;8.45;;;;;;;16.64;100.00;100407.34;6195020;23;20012;-73
2023/07/02 01:22:20;;;;;;;31.40;10.82;;;;;;;16.56;100.00;100412.88;6246601;23;20008;-73
2023/07/02 01:24:47;;;;;;;36.28;10.35;;;;;;;16.62;100.00;100414.06;6219956;23;20042;-73
2023/07/02 01:27:13;;;;;;;29.52;10.30;;;;;;;16.57;100.00;100417.34;6219979;23;20008;-74
2023/07/02 01:29:39;;;;;;;28.55;9.85;;;;;;;16.54;100.00;100414.91;6194733;23;20494;-73
2023/07/02 01:32:05;;;;;;;26.70;10.55;;;;;;;16.56;100.00;100409.22;6246609;23;20062;-73
2023/07/02 01:34:30;;;;;;;32.50;10.75;;;;;;;16.50;100.00;100403.34;6219996;23;20016;-72
2023/07/02 01:36:56;;;;;;;32.20;10.43;;;;;;;16.59;100.00;100409.72;6194832;23;20439;-73
2023/07/02 01:39:22;;;;;;;37.40;11.55;;;;;;;16.50;100.00;100408.03;6246614;23;20012;-73
2023/07/02 01:41:53;;;;;;;39.03;11.82;;;;;;;16.49;100.00;100414.56;6220089;23;20018;-72
2023/07/02 01:44:19;;;;;;;26.48;10.32;;;;;;;16.48;100.00;100415.63;6219592;23;20092;-73
2023/07/02 01:46:49;;;;;;;36.15;12.07;;;;;;;16.50;100.00;100414.41;6194575;23;20490;-73
2023/07/02 01:49:19;;;;;;;41.33;13.13;;;;;;;16.44;100.00;100419.75;6170412;23;20012;-73
2023/07/02 01:51:48;;;;;;;45.47;13.32;;;;;;;16.58;100.00;100416.31;6246025;23;20004;-72
2023/07/02 01:54:14;;;;;;;43.38;13.55;;;;;;;16.41;100.00;100412.66;6219674;23;20075;-72
2023/07/02 01:56:39;;;;;;;43.33;13.02;;;;;;;16.50;100.00;100425.47;6219803;23;20454;-72
2023/07/02 01:59:05;;;;;;;35.97;12.48;;;;;;;16.39;100.00;100423.03;6246300;23;20050;-72
2023/07/02 02:01:32;;;;;;;39.33;12.88;;;;;;;16.48;100.00;100412.88;6219374;23;20024;-72
2023/07/02 02:03:58;;;;;;;40.80;12.90;;;;;;;16.42;100.00;100424.59;6219720;23;20004;-72
2023/07/02 02:06:23;;;;;;;43.63;14.43;;;;;;;16.43;100.00;100431.81;6219524;23;20023;-73
2023/07/02 02:08:49;;;;;;;44.08;13.40;;;;;;;16.35;100.00;100428.03;6194638;23;20439;-72
2023/07/02 02:11:14;;;;;;;38.63;13.45;;;;;;;16.44;100.00;100428.91;6219923;23;20460;-73
2023/07/02 02:13:40;;;;;;;43.88;14.75;;;;;;;16.35;100.00;100425.25;6219567;23;20099;-72
2023/07/02 02:16:05;;;;;;;39.00;13.60;;;;;;;16.40;100.00;100430.28;6245842;23;20019;-72
2023/07/02 02:18:30;;;;;;;35.15;13.85;;;;;;;16.44;100.00;100430.81;6144915;23;20498;-72
2023/07/02 02:20:56;;;;;;;37.17;14.70;;;;;;;16.31;100.00;100429.38;6219305;23;20061;-73
2023/07/02 02:23:21;;;;;;;44.53;14.25;;;;;;;16.25;100.00;100427.31;6194397;23;20012;-72
2023/07/02 02:25:47;;;;;;;42.72;14.90;;;;;;;16.25;100.00;100432.84;6219312;23;20142;-72
2023/07/02 02:28:12;;;;;;;42.60;14.38;;;;;;;16.25;100.00;100429.19;6219660;23;20047;-72
2023/07/02 02:30:37;;;;;;;47.55;14.23;;;;;;;16.17;100.00;100438.34;6194034;23;20038;-72
2023/07/02 02:33:03;;;;;;;45.85;15.00;;;;;;;16.13;100.00;100432.31;6194103;23;20438;-72
2023/07/02 02:35:28;;;;;;;52.10;15.32;;;;;;;16.10;100.00;100431.75;6194029;23;20061;-72
2023/07/02 02:37:54;;;;;;;44.00;14.50;;;;;;;16.09;100.00;100435.56;6246305;23;20015;-72
2023/07/02 02:40:19;;;;;;;44.97;14.60;;;;;;;16.04;100.00;100432.44;6219129;23;20016;-72
2023/07/02 02:42:44;;;;;;;43.53;15.57;;;;;;;16.11;100.00;100427.97;6220021;23;20440;-72
2023/07/02 02:45:10;;;;;;;44.58;14.90;;;;;;;16.13;100.00;100439.72;6194056;23;20057;-72
2023/07/02 02:47:35;;;;;;;44.42;14.70;;;;;;;16.08;100.00;100439.34;6194416;23;20035;-72
2023/07/02 02:50:05;;;;;;;45.90;16.58;;;;;;;16.01;100.00;100439.16;6169637;23;20035;-72
2023/07/02 02:52:30;;;;;;;51.92;16.50;;;;;;;16.03;100.00;100437.09;6219809;23;20012;-73
2023/07/02 02:54:56;;;;;;;50.40;17.55;;;;;;;15.96;100.00;100438.81;6218563;23;20008;-72
2023/07/02 02:57:21;;;;;;;41.05;15.63;;;;;;;16.13;100.00;100440.59;6169206;23;20010;-73
2023/07/02 02:59:46;;;;;;;47.03;15.95;;;;;;;16.24;100.00;100449.59;6246104;23;20008;-72
2023/07/02 03:02:12;;;;;;;53.35;15.35;;;;;;;16.10;100.00;100453.84;6193674;23;20347;-72
2023/07/02 03:04:41;;;;;;;38.97;14.88;;;;;;;16.19;100.00;100455.63;6169281;23;20008;-72
2023/07/02 03:07:09;;;;;;;49.10;16.35;;;;;;;16.21;100.00;100450.78;6194521;23;20016;-72
2023/07/02 03:09:35;;;;;;;46.97;17.05;;;;;;;16.18;100.00;100456.63;6218853;23;20008;-72
2023/07/02 03:12:00;;;;;;;41.72;16.83;;;;;;;16.06;100.00;100455.22;6194078;23;20035;-72
2023/07/02 03:14:26;;;;;;;54.80;17.52;;;;;;;16.15;100.00;100468.03;6245440;23;20004;-74
2023/07/02 03:16:51;;;;;;;46.10;18.35;;;;;;;16.19;100.00;100468.56;6219012;23;20075;-73
2023/07/02 03:19:16;;;;;;;45.05;16.83;;;;;;;16.17;100.00;100472.34;6245708;23;20004;-72
2023/07/02 03:21:45;;;;;;;48.05;16.90;;;;;;;16.04;100.00;100471.97;6193752;23;20019;-73
2023/07/02 03:24:13;;;;;;;48.13;17.40;;;;;;;16.03;100.00;100477.66;6193651;23;20016;-74
2023/07/02 03:26:45;;;;;;;57.03;18.92;;;;;;;16.03;100.00;100475.75;6218595;23;20404;-74
2023/07/02 03:29:11;;;;;;;48.55;16.75;;;;;;;16.09;100.00;100482.53;6245417;23;20039;-73
2023/07/02 03:31:37;;;;;;;56.85;17.65;;;;;;;16.09;100.00;100488.03;6218721;23;20061;-73
2023/07/02 03:34:12;;;;;;;58.13;18.30;;;;;;;16.13;100.00;100479.25;6245722;23;20305;-73
2023/07/02 03:36:38;;;;;;;48.35;18.00;;;;;;;16.14;100.00;100488.41;6218918;23;20420;-72
2023/07/02 03:39:04;;;;;;;51.38;16.25;;;;;;;16.03;100.00;100483.19;6245522;23;20091;-72
2023/07/02 03:41:30;;;;;;;58.22;17.30;;;;;;;16.04;100.00;100482.16;6219019;23;20012;-72
2023/07/02 03:43:55;;;;;;;60.10;18.60;;;;;;;15.98;100.00;100495.56;6245313;23;20023;-71
2023/07/02 03:46:21;;;;;;;51.83;16.85;;;;;;;15.97;100.00;100490.22;6193393;23;20008;-71
2023/07/02 03:48:46;;;;;;;45.25;17.20;;;;;;;16.09;100.00;100505.47;6218549;23;20027;-73
2023/07/02 03:51:14;;;;;;;50.42;18.40;;;;;;;16.14;100.00;100502.22;6193859;23;20023;-71
2023/07/02 03:53:43;;;;;;;52.25;16.38;;;;;;;16.09;100.00;100504.63;6219243;23;20012;-71
2023/07/02 03:56:09;;;;;;;45.78;17.33;;;;;;;16.02;100.00;100503.53;6245526;23;20023;-72
2023/07/02 03:58:35;;;;;;;56.97;18.75;;;;;;;16.06;100.00;100508.56;6193771;23;20008;-71
2023/07/02 04:01:00;;;;;;;45.95;17.38;;;;;;;16.12;100.00;100512.56;6193147;23;20301;-71
2023/07/02 04:03:26;;;;;;;52.05;17.48;;;;;;;16.14;100.00;100513.25;6168350;23;20070;-72
2023/07/02 04:05:51;;;;;;;63.58;19.50;;;;;;;16.09;100.00;100522.03;6245598;23;20015;-72
2023/07/02 04:08:17;;;;;;;44.80;16.20;;;;;;;16.05;100.00;100515.09;6245137;23;20004;-72
2023/07/02 04:10:43;;;;;;;54.50;17.63;;;;;;;16.12;100.00;100518.09;6218451;23;20012;-72
2023/07/02 04:13:08;;;;;;;46.65;17.02;;;;;;;16.02;100.00;100515.47;6218627;23;20015;-72
2023/07/02 04:15:34;;;;;;;55.92;18.00;;;;;;;15.96;100.00;100516.13;6247438;23;20016;-71
2023/07/02 04:18:00;;;;;;;49.58;18.05;;;;;;;15.89;100.00;100526.06;6220578;23;20355;-72
2023/07/02 04:20:25;;;;;;;52.08;17.35;;;;;;;15.92;100.00;100515.59;6247545;23;20095;-72
2023/07/02 04:22:51;;;;;;;54.50;18.17;;;;;;;15.86;100.00;100523.66;6220542;23;20027;-72
2023/07/02 04:25:17;;;;;;;47.95;19.45;;;;;;;15.83;100.00;100524.84;6247618;23;20316;-73
2023/07/02 04:27:43;;;;;;;48.67;18.20;;;;;;;15.71;100.00;100520.59;6220544;23;20012;-71
2023/07/02 04:30:10;;;;;;;55.08;17.92;;;;;;;15.69;100.00;100525.41;6247268;23;20061;-72
2023/07/02 04:32:39;;;;;;;53.00;18.13;;;;;;;15.63;100.00;100535.22;6195369;23;20015;-73
2023/07/02 04:35:05;;;;;;;58.00;18.73;;;;;;;15.65;100.00;100530.41;6195315;23;20008;-71
2023/07/02 04:37:31;;;;;;;53.47;18.00;;;;;;;15.67;100.00;100524.72;6220640;23;20043;-71
2023/07/02 04:39:56;;;;;;;54.63;18.52;;;;;;;15.76;100.00;100534.81;6247454;23;20016;-72
2023/07/02 04:42:27;;;;;;;48.08;17.55;;;;;;;15.77;100.00;100540.19;6247077;23;20016;-73
2023/07/02 04:44:56;;;;;;;54.70;18.45;;;;;;;15.78;100.00;100538.28;6220574;23;20079;-73
2023/07/02 04:47:21;;;;;;;53.00;16.98;;;;;;;15.77;100.00;100540.19;6247332;23;20042;-71
2023/07/02 04:49:46;;;;;;;49.10;18.52;;;;;;;15.83;100.00;100541.41;6195038;23;20019;-73
2023/07/02 04:52:12;;;;;;;60.10;18.67;;;;;;;15.83;100.00;100544.16;6195585;23;20102;-72
2023/07/02 04:54:37;;;;;;;53.28;16.83;;;;;;;15.81;100.00;100540.72;6220259;23;20387;-73
2023/07/02 04:57:03;;;;;;;57.17;17.50;;;;;;;15.84;100.00;100534.88;6195508;23;20016;-73
2023/07/02 04:59:29;;;;;;;50.13;18.33;;;;;;;15.81;100.00;100546.25;6195288;23;20015;-72
2023/07/02 05:01:54;;;;;;;54.67;18.90;;;;;;;15.82;100.00;100545.19;6170237;23;20062;-73
2023/07/02 05:04:19;;;;;;;53.63;18.23;;;;;;;15.90;100.00;100553.53;6220358;23;20000;-73
2023/07/02 05:06:45;;;;;;;43.00;18.05;;;;;;;15.88;100.00;100544.53;6220262;23;20036;-72
2023/07/02 05:09:10;;;;;;;51.70;16.42;;;;;;;15.94;100.00;100554.09;6220063;23;20008;-72
2023/07/02 05:11:36;;;;;;;47.28;16.75;;;;;;;16.13;100.00;100553.84;6247269;23;20035;-74
2023/07/02 05:14:01;;;;;;;53.30;17.95;;;;;;;16.13;100.00;100566.75;6195279;23;20087;-73
2023/07/02 05:16:27;;;;;;;52.03;16.35;;;;;;;16.27;100.00;100557.84;6247138;23;20015;-72
2023/07/02 05:18:52;;;;;;;47.33;17.60;;;;;;;16.13;100.00;100564.00;6219670;23;20031;-73
2023/07/02 05:21:18;;;;;;;52.22;16.90;;;;;;;16.17;100.00;100560.75;6195133;23;20012;-72
2023/07/02 05:23:43;;;;;;;50.47;17.55;;;;;;;16.07;100.00;100561.88;6189662;23;20021;-72
2023/07/02 05:26:09;;;;;;;54.42;18.23;;;;;;;16.21;100.00;100561.28;6214754;23;20036;-72
2023/07/02 05:28:34;;;;;;;60.03;17.23;;;;;;;16.29;100.00;100572.38;6214815;23;20009;-72
2023/07/02 05:31:00;;;;;;;46.85;17.80;;;;;;;16.56;100.00;100564.00;6216698;23;20325;-74
2023/07/02 05:33:25;;;;;;;47.05;16.80;;;;;;;16.69;100.00;100573.56;6216708;23;20015;-72
2023/07/02 05:35:51;;;;;;;46.03;16.63;;;;;;;17.01;100.00;100571.06;6216595;23;20017;-72
2023/07/02 05:38:18;;;;;;;52.75;16.63;;;;;;;17.37;100.00;100579.06;6216337;23;20016;-71
2023/07/02 05:40:44;;;;;;;46.92;18.05;;;;;;;17.25;100.00;100584.06;6189966;23;20019;-71
2023/07/02 05:43:09;;;;;;;47.92;16.42;;;;;;;17.48;100.00;100583.34;6239785;23;20000;-72
2023/07/02 05:45:34;;;;;;;54.72;17.52;;;;;;;17.48;100.00;100586.13;6216341;23;20483;-72
2023/07/02 05:48:00;;;;;;;41.60;14.23;;;;;;;17.54;100.00;100583.53;6214819;23;20009;-72
2023/07/02 05:50:25;;;;;;;43.50;15.50;;;;;;;17.51;100.00;100591.31;6165402;23;20020;-72
2023/07/02 05:52:51;;;;;;;51.60;15.38;;;;;;;17.50;100.00;100590.47;6216342;23;20009;-72
2023/07/02 05:55:16;;;;;;;43.25;14.07;;;;;;;17.54;100.00;100597.38;6214450;23;20751;-72
2023/07/02 05:57:44;;;;;;;39.70;12.73;;;;;;;17.79;100.00;100592.69;6189734;23;20067;-72
2023/07/02 06:00:10;;;;;;;44.75;13.52;;;;;;;17.77;100.00;100594.78;6165278;23;20082;-72
2023/07/02 06:02:36;;;;;;;33.17;11.18;;;;;;;18.08;100.00;100604.25;6216033;23;20008;-73
2023/07/02 06:05:01;;;;;;;36.70;11.70;;;;;;;18.54;100.00;100602.56;6189266;23;20062;-73
2023/07/02 06:07:28;;;;;;;36.53;10.52;;;;;;;18.39;100.00;100601.56;6214016;23;20044;-73
2023/07/02 06:09:53;;;;;;;38.78;10.35;;;;;;;18.49;100.00;100610.53;6189161;23;20008;-73
2023/07/02 06:12:20;;;;;;;34.42;9.45;;;;;;;18.23;100.00;100612.72;6215823;23;20494;-73
2023/07/02 06:14:46;;;;;;;30.95;9.02;;;;;;;18.28;100.00;100619.47;6214238;23;20096;-72
2023/07/02 06:17:11;;;;;;;33.13;9.18;;;;;;;18.49;99.88;100618.84;6164255;23;20047;-72
2023/07/02 06:19:38;;;;;;;31.67;9.85;;;;;;;18.34;100.00;100624.28;6214206;23;20066;-72
2023/07/02 06:22:03;;;;;;;26.25;8.55;;;;;;;18.07;100.00;100625.56;6215713;23;20011;-72
2023/07/02 06:24:29;;;;;;;36.40;9.38;;;;;;;17.98;100.00;100621.06;6213658;23;20017;-72
2023/07/02 06:26:54;;;;;;;29.92;9.30;;;;;;;18.16;100.00;100626.41;6214185;23;20020;-72
2023/07/02 06:29:22;;;;;;;36.03;8.82;;;;;;;17.92;100.00;100624.53;6213912;23;20379;-71
2023/07/02 06:31:48;;;;;;;33.75;8.35;;;;;;;18.07;100.00;100633.00;6215174;23;20036;-72
2023/07/02 06:34:14;;;;;;;27.75;8.25;;;;;;;18.31;100.00;100632.94;6213962;23;20019;-73
2023/07/02 06:36:39;;;;;;;31.05;8.18;;;;;;;18.55;99.83;100634.78;6189099;23;20393;-72
2023/07/02 06:39:05;;;;;;;34.83;8.75;;;;;;;18.65;99.57;100636.47;6188626;23;20020;-72
2023/07/02 06:41:30;;;;;;;31.00;7.53;;;;;;;18.39;99.50;100640.38;6215800;23;20017;-73
2023/07/02 06:43:56;;;;;;;36.28;8.10;;;;;;;19.10;96.07;100648.75;6213671;23;20016;-72
2023/07/02 06:46:21;;;;;;;30.85;7.60;;;;;;;20.05;89.20;100649.44;6213664;23;20047;-72
2023/07/02 06:48:47;;;;;;;24.20;7.50;;;;;;;19.27;87.43;100650.38;6163669;23;20459;-72
2023/07/02 06:51:14;;;;;;;29.88;8.48;;;;;;;18.98;92.24;100658.53;6163906;23;20030;-73
2023/07/02 06:53:41;;;;;;;24.83;8.27;;;;;;;18.76;90.89;100657.38;6215030;23;20040;-74
2023/07/02 06:56:09;;;;;;;23.65;7.15;;;;;;;18.74;88.48;100669.53;6188740;23;20013;-73
2023/07/02 06:58:35;;;;;;;30.73;8.32;;;;;;;18.94;89.91;100658.03;6213658;23;20048;-75
2023/07/02 07:01:00;;;;;;;27.42;7.50;;;;;;;18.86;91.59;100667.28;6215391;23;20310;-72
2023/07/02 07:03:26;;;;;;;27.23;7.28;;;;;;;18.92;87.70;100674.00;6213673;23;20036;-73
2023/07/02 07:05:52;;;;;;;23.55;6.38;;;;;;;19.10;87.63;100676.50;6188790;23;20008;-72
2023/07/02 07:08:17;;;;;;;26.70;7.93;;;;;;;19.61;86.22;100674.09;6188562;23;20357;-72
2023/07/02 07:10:45;;;;;;;19.63;7.20;;;;;;;18.49;88.98;100679.84;6215247;23;20009;-72
2023/07/02 07:13:10;;;;;;;23.10;6.93;;;;;;;18.63;86.43;100674.63;6214986;23;20012;-73
2023/07/02 07:15:36;;;;;;;26.48;6.90;;;;;;;18.96;85.95;100680.91;6238742;23;20011;-73
2023/07/02 07:18:02;;;;;;;27.15;8.02;;;;;;;19.19;86.34;100680.13;6213773;23;20087;-73
2023/07/02 07:20:28;;;;;;;23.98;6.75;;;;;;;18.98;85.95;100683.53;6213472;23;20443;-74
2023/07/02 07:22:53;;;;;;;22.50;6.65;;;;;;;19.55;83.88;100687.88;6217018;23;20043;-73
2023/07/02 07:25:19;;;;;;;31.13;7.63;;;;;;;19.84;84.41;100689.94;6218757;23;20026;-72
2023/07/02 07:27:44;;;;;;;28.27;7.53;;;;;;;20.22;81.54;100689.94;6193830;23;20100;-72
2023/07/02 07:30:10;;;;;;;23.75;7.07;;;;;;;20.56;77.79;100686.59;6193184;23;20510;-72
2023/07/02 07:32:35;;;;;;;22.33;7.03;;;;;;;21.26;75.21;100680.69;6218639;23;20022;-73
2023/07/02 07:35:04;;;;;;;30.35;7.65;;;;;;;20.74;74.50;100689.03;6244976;23;20421;-72
2023/07/02 07:37:30;;;;;;;27.02;7.78;;;;;;;21.05;76.15;100693.53;6218305;23;20012;-71
2023/07/02 07:39:55;;;;;;;22.92;6.47;;;;;;;19.92;74.11;100692.66;6218312;23;20019;-72
2023/07/02 07:42:21;;;;;;;21.48;6.90;;;;;;;20.27;75.43;100697.72;6218599;23;20016;-72
2023/07/02 07:44:46;;;;;;;21.75;6.30;;;;;;;20.30;74.59;100692.63;6193158;23;20112;-71
2023/07/02 07:47:12;;;;;;;20.58;6.97;;;;;;;19.89;72.69;100695.78;6218196;23;20004;-73
2023/07/02 07:49:37;;;;;;;24.23;6.35;;;;;;;19.99;72.57;100698.31;6167852;23;20050;-72
2023/07/02 07:52:06;;;;;;;24.70;6.18;;;;;;;20.43;70.20;100696.66;6193070;23;20018;-72
2023/07/02 07:54:32;;;;;;;17.02;5.95;;;;;;;20.19;68.91;100705.06;6217995;23;20023;-72
2023/07/02 07:56:57;;;;;;;20.40;6.32;;;;;;;19.83;71.10;100697.38;6218202;23;20379;-72
2023/07/02 07:59:23;;;;;;;17.58;5.20;;;;;;;20.44;71.67;100709.50;6218455;23;20016;-72
2023/07/02 08:01:48;;;;;;;15.88;5.45;;;;;;;20.32;70.29;100698.00;6168302;23;20113;-72
2023/07/02 08:04:14;;;;;;;17.80;5.72;;;;;;;20.54;66.05;100710.94;6193078;23;20012;-72
2023/07/02 08:06:39;;;;;;;22.00;6.60;;;;;;;20.35;69.03;100720.72;6193006;23;20016;-73
2023/07/02 08:09:04;;;;;;;18.83;5.63;;;;;;;20.15;69.78;100713.97;6193797;23;20008;-72
2023/07/02 08:11:30;;;;;;;17.05;5.82;;;;;;;20.56;66.99;100710.75;6193037;23;20379;-72
2023/07/02 08:13:55;;;;;;;17.80;5.60;;;;;;;20.58;65.62;100705.88;6193261;23;20428;-73
2023/07/02 08:16:21;;;;;;;18.83;5.70;;;;;;;20.79;67.36;100699.59;6244949;23;20099;-72
2023/07/02 08:18:46;;;;;;;20.25;5.78;;;;;;;21.49;65.09;100713.97;6218293;23;20022;-72
2023/07/02 08:21:11;;;;;;;19.15;5.40;;;;;;;21.86;65.76;100712.03;6192932;23;20780;-72
2023/07/02 08:23:37;;;;;;;17.15;5.45;;;;;;;22.11;65.39;100711.59;6217741;23;20023;-77
2023/07/02 08:26:03;;;;;;;15.65;5.85;;;;;;;21.40;64.74;100724.34;6218452;23;20012;-72
2023/07/02 08:28:29;;;;;;;15.77;5.32;;;;;;;20.78;65.45;100731.25;6193239;23;20019;-72
2023/07/02 08:30:54;;;;;;;17.02;5.90;;;;;;;20.97;64.36;100726.16;6218077;23;20012;-72
2023/07/02 08:33:20;;;;;;;21.75;6.35;;;;;;;20.11;65.33;100741.28;6193161;23;20023;-72
2023/07/02 08:35:46;;;;;;;18.00;5.25;;;;;;;20.09;65.60;100725.84;6193271;23;20062;-72
2023/07/02 08:38:11;;;;;;;19.10;6.00;;;;;;;20.66;64.36;100722.53;6192751;23;20013;-72
2023/07/02 08:40:37;;;;;;;17.77;5.65;;;;;;;20.84;63.52;100732.38;6217992;23;20027;-72
2023/07/02 08:43:03;;;;;;;19.85;5.20;;;;;;;20.97;63.26;100723.38;6245275;23;20008;-72
2023/07/02 08:45:29;;;;;;;19.80;5.82;;;;;;;20.81;60.91;100728.09;6218104;23;20392;-72
2023/07/02 08:47:56;;;;;;;17.02;5.90;;;;;;;21.10;63.09;100730.00;6245114;23;20092;-72
2023/07/02 08:50:23;;;;;;;16.65;5.40;;;;;;;21.78;63.95;100735.31;6244703;23;20008;-72
2023/07/02 08:52:48;;;;;;;16.00;5.97;;;;;;;21.66;58.06;100732.19;6217828;23;20016;-72
2023/07/02 08:55:13;;;;;;;15.38;4.93;;;;;;;22.30;60.43;100746.31;6192913;23;20020;-72
2023/07/02 08:57:42;;;;;;;18.70;5.50;;;;;;;22.80;56.88;100746.28;6192713;23;20008;-72
2023/07/02 09:00:11;;;;;;;23.15;6.22;;;;;;;21.83;57.80;100746.72;6218986;23;20429;-72
2023/07/02 09:02:36;;;;;;;15.15;5.25;;;;;;;22.54;56.32;100737.50;6219582;23;20379;-72
2023/07/02 09:05:03;;;;;;;29.55;5.60;;;;;;;22.67;54.43;100744.25;6219762;23;20055;-71
2023/07/02 09:07:29;;;;;;;19.42;5.45;;;;;;;21.95;53.64;100749.84;6219809;23;20498;-71
2023/07/02 09:09:55;;;;;;;17.38;5.55;;;;;;;21.17;57.56;100752.34;6219539;23;20015;-72
2023/07/02 09:12:28;;;;;;;18.08;5.68;;;;;;;20.69;59.80;100754.66;6194469;23;20004;-72
2023/07/02 09:15:06;;;;;;;19.20;6.13;;;;;;;20.43;60.79;100746.72;6219664;23;20016;-72
2023/07/02 09:17:36;;;;;;;20.55;6.07;;;;;;;20.47;61.89;100756.44;6246214;23;20016;-74
2023/07/02 09:20:08;;;;;;;11.82;5.70;;;;;;;20.43;60.39;100755.06;6246250;23;20008;-72
2023/07/02 09:22:35;;;;;;;19.92;6.00;;;;;;;20.51;59.92;100746.63;6195445;23;20042;-74
2023/07/02 09:25:02;;;;;;;17.33;5.45;;;;;;;20.95;60.04;100740.25;6246248;23;20020;-72
2023/07/02 09:27:41;;;;;;;17.80;5.38;;;;;;;21.39;60.34;100749.63;6194377;23;20008;-72
2023/07/02 09:30:18;;;;;;;14.35;5.47;;;;;;;22.70;57.22;100747.50;6220742;23;20335;-72
2023/07/02 09:32:54;;;;;;;13.82;5.50;;;;;;;23.15;55.14;100735.97;6196564;23;20008;-71
2023/07/02 09:35:19;;;;;;;15.48;5.80;;;;;;;21.44;57.06;100736.81;6220011;23;20061;-72
2023/07/02 09:37:46;;;;;;;20.63;5.93;;;;;;;22.17;57.18;100742.34;6219437;23;20019;-71
2023/07/02 09:40:12;;;;;;;19.60;7.05;;;;;;;21.91;57.06;100742.94;6219674;23;20008;-71
2023/07/02 09:42:39;;;;;;;24.52;7.28;;;;;;;21.91;60.01;100739.31;6219275;23;20008;-72
2023/07/02 09:45:08;;;;;;;16.02;5.88;;;;;;;22.68;53.82;100732.03;6194524;23;20379;-72
2023/07/02 09:47:45;;;;;;;21.15;5.85;;;;;;;22.09;56.14;100731.31;6220531;23;20008;-71
2023/07/02 09:50:12;;;;;;;18.80;5.72;;;;;;;21.57;55.42;100746.44;6219349;23;20389;-72
2023/07/02 09:52:38;;;;;;;15.52;5.78;;;;;;;21.83;55.18;100740.28;6245984;23;20091;-72
2023/07/02 09:55:04;;;;;;;17.73;5.68;;;;;;;22.99;52.34;100739.06;6219135;23;20040;-72
2023/07/02 09:57:31;;;;;;;17.50;6.20;;;;;;;22.81;53.58;100743.28;6245952;23;20095;-72
2023/07/02 09:59:58;;;;;;;19.60;6.10;;;;;;;22.87;54.54;100731.28;6219499;23;20012;-75
2023/07/02 10:02:24;;;;;;;23.95;6.25;;;;;;;22.79;53.34;100739.81;6219925;23;20431;-72
2023/07/02 10:04:54;;;;;;;18.75;6.38;;;;;;;21.89;54.91;100738.63;6245761;23;20011;-73
2023/07/02 10:07:30;;;;;;;16.58;5.68;;;;;;;21.39;54.50;100749.63;6195310;23;20062;-72
2023/07/02 10:09:56;;;;;;;17.75;5.28;;;;;;;21.18;55.54;100753.22;6218819;23;20016;-73
2023/07/02 10:12:27;;;;;;;18.25;5.47;;;;;;;21.52;56.15;100751.75;6218760;23;20004;-75
2023/07/02 10:14:54;;;;;;;23.63;6.15;;;;;;;22.61;54.93;100761.81;6219076;23;20091;-71
2023/07/02 10:17:37;;;;;;;17.15;6.10;;;;;;;22.54;52.69;100753.41;6245634;23;20004;-71
2023/07/02 10:20:08;;;;;;;15.88;5.13;;;;;;;21.82;53.28;100767.31;6218826;23;20012;-72
2023/07/02 10:22:43;;;;;;;19.25;6.35;;;;;;;21.46;57.27;100757.00;6194491;23;20375;-72
2023/07/02 10:25:10;;;;;;;19.65;5.60;;;;;;;21.79;54.69;100755.69;6218795;23;20020;-71
2023/07/02 10:27:40;;;;;;;22.75;6.60;;;;;;;21.59;54.99;100764.69;6193749;23;20018;-73
2023/07/02 10:30:07;;;;;;;17.42;6.72;;;;;;;21.56;56.71;100762.31;6218551;23;20424;-72
2023/07/02 10:32:34;;;;;;;16.67;4.85;;;;;;;21.57;56.79;100757.59;6193674;23;20066;-72
2023/07/02 10:35:02;;;;;;;19.27;5.40;;;;;;;21.52;56.27;100768.47;6218675;23;20019;-73
2023/07/02 10:37:37;;;;;;;14.90;5.18;;;;;;;21.48;55.38;100766.06;6218780;23;20428;-73
2023/07/02 10:40:06;;;;;;;19.60;5.85;;;;;;;22.29;55.62;100767.78;6218838;23;20011;-73
2023/07/02 10:42:32;;;;;;;21.42;5.55;;;;;;;22.27;54.41;100782.97;6194023;23;20015;-72
2023/07/02 10:44:58;;;;;;;18.20;5.72;;;;;;;21.84;51.73;100773.56;6193534;23;20008;-72
2023/07/02 10:47:23;;;;;;;13.05;5.60;;;;;;;22.53;52.92;100766.50;6193887;23;20199;-73
2023/07/02 10:49:49;;;;;;;19.00;5.53;;;;;;;22.79;51.90;100776.13;6193681;23;20377;-73
2023/07/02 10:52:16;;;;;;;16.88;5.60;;;;;;;22.79;50.35;100764.94;6193568;23;20066;-75
2023/07/02 10:54:48;;;;;;;16.58;5.68;;;;;;;22.38;51.19;100776.88;6219564;23;20390;-74
2023/07/02 10:57:20;;;;;;;;;;;;;;;22.25;51.53;100774.81;6219886;23;20447;-72
2023/07/02 10:59:45;;;;;;;17.67;5.72;;;;;;;21.97;52.98;100772.84;6195034;23;19990;-72
2023/07/02 11:02:11;;;;;;;22.73;6.32;;;;;;;21.51;53.82;100786.22;6193078;23;20053;-73
2023/07/02 11:04:37;;;;;;;28.27;6.75;;;;;;;21.58;53.97;100773.22;6218262;23;20421;-73
2023/07/02 11:07:03;;;;;;;20.90;6.07;;;;;;;21.50;55.29;100773.34;6166878;23;20425;-74